Tiempo atmosférico en la estación meteorológica de La Pinilla, estación de esquí, Segovia (1860 m.)



Fecha
DESCASC
Temp. máxima en grados centígrados (hora)
DESCASC
Temp. mínima en grados centígrados (hora)
DESCASC
Temp. media en grados centígrados
DESCASC
Racha de viento máxima en m/sg (hora)
DESCASC
Velocidad máxima media en intervalos de 10 minutos(hora)
DESCASC
Precipitaciones diarias en mm
DESCASC
Precipitaciones de 00:00 a 06:00 en mm
DESCASC
Precipitaciones de 06:00 a 12:00 en mm
DESCASC
Precipitaciones de 12:00 a 18:00 en mm
DESCASC
Precipitaciones de 18:00 a 24:00 en mm
DESCASC
16-01-2020 4.4 (01:10) 0.7 (23:40) 2.6 23.89 (12:50) 14.72 (18:20) 3 0 0.2 0.2 2.6
15-01-2020 4.8 (11:50) -1.1 (05:00) 1.9 19.44 (05:00) 12.22 (04:40) 0.6 0 0 0.2 0.4
14-01-2020 7.5 (12:20) -2 (18:20) 2.8 16.39 (23:30) 9.17 (23:40) 1.2 1.2 0 0 0
13-01-2020 9.3 (13:00) -0.4 (23:59) 4.5 12.5 (22:00) 6.11 (21:10) 0 0 0 0 0
12-01-2020 10.6 (14:20) -2.7 (04:50) 4 8.06 (23:50) 6.11 (23:30) 0.4 0 0.2 0.2 0
11-01-2020 7.4 (14:10) -4.9 (-00:0) 1.3 13.61 (04:00) 8.06 (03:50) 0 0 0 0 0
10-01-2020 0.8 (00:00) -4.9 (-00:0) -2.1 14.17 (00:50) 7.78 (10:40) 0 0 0 0 0
09-01-2020 7.8 (12:10) 0.8 (00:00) 4.3 18.33 (19:10) 6.67 (19:20) 0.6 0 0 0 0.6
08-01-2020 14.4 (13:50) 3.2 (00:00) 8.8 6.94 (04:10) 3.89 (02:50) 0 0 0 0 0
07-01-2020 13.5 (14:10) 2.7 (00:00) 8.1 5.83 (19:00) 3.89 (19:00) 0 0 0 0 0
06-01-2020 10.5 (14:50) 3.4 (00:00) 7 10.28 (07:30) 7.78 (07:30) 0 0 0 0 0
05-01-2020 14.2 (14:20) 4.8 (00:00) 9.5 13.33 (02:30) 10 (02:40) 0 0 0 0 0
04-01-2020 8.8 (23:59) -2.8 (-00:0) 3 13.61 (20:20) 9.72 (20:20) 0 0 0 0 0
03-01-2020 9.1 (13:40) -2.4 (-00:0) 3.4 7.22 (05:50) 4.17 (09:20) 0 0 0 0 0
02-01-2020 14.1 (14:00) 3.7 (00:00) 8.9 7.78 (19:00) 4.17 (19:10) 0 0 0 0 0
01-01-2020 13.9 (12:30) 4.7 (00:00) 9.3 6.11 (18:10) 4.72 (18:10) 0 0 0 0 0
31-12-2019 15.1 (14:10) 5.2 (00:00) 10.2 4.72 (03:30) 3.61 (03:30) 0 0 0 0 0
30-12-2019 14.2 (14:00) 5.3 (00:00) 9.8 5 (19:30) 3.33 (03:00) 0 0 0 0 0
29-12-2019 15.1 (14:10) 5.5 (00:00) 10.3 5.28 (08:00) 3.61 (02:00) 0 0 0 0 0
28-12-2019 15.5 (12:50) 5.4 (00:00) 10.5 6.39 (00:20) 3.61 (06:30) 0 0 0 0 0
27-12-2019 13.2 (15:20) 4.8 (00:00) 9 8.06 (03:40) 6.39 (03:50) 0 0 0 0 0
26-12-2019 10.5 (13:50) 2.2 (00:00) 6.4 13.06 (02:00) 4.72 (05:30) 0 0 0 0 0
25-12-2019 14.6 (12:20) 5 (00:00) 9.8 14.72 (08:40) 10.83 (06:20) 0 0 0 0 0
24-12-2019 9.7 (12:40) 5.1 (05:20) 7.4 15.83 (01:00) 4.72 (12:20) 0 0 0 0 0
23-12-2019 6.3 (22:10) -2.3 (-00:0) 2 15.56 (00:30) 6.67 (06:10) 0 0 0 0 0
22-12-2019 4.2 (16:20) -0.1 (23:50) 2 39.72 (01:20) 11.11 (11:30) 14 0.6 4.4 8 1
21-12-2019 8 (11:50) 0.9 (23:00) 4.4 40.83 (13:00) 16.67 (16:10) 24.6 13 5.2 3 3.4
20-12-2019 7 (20:20) -0.1 (00:00) 3.4 43.06 (20:20) 14.44 (02:40) 58.6 25.8 6.4 9.8 16.6

Gráficas

Temp. máximas Temp. mínimas Temp. medias Precipitaciones Rachas de viento máximas Velocidades máximas media en intervalos de 10 minutos

Datos horarios

Fecha y hora oficial Temperatura (ºC) Velocidad del viento (km/h) Dirección del viento Racha (km/h) Dirección de racha Precipitación (mm) Presión (hPa) Tendencia (hPa) Humedad (%)
2020-01-18 23:00:00 -0.5 15 Norte 55 Norte 0 820.5 -0.5 99
2020-01-18 22:00:00 -0.2 17 Norte 72 Noroeste 0 820.8 -0.4 99
2020-01-18 21:00:00 0.4 23 Norte 59 Norte 2.6 821.1 0.5 99
2020-01-18 20:00:00 0.8 19 Noroeste 84 Sur 2.6 821 -0.2 97
2020-01-18 19:00:00 2.8 22 Norte 68 Noroeste 0 821.2 -0.6 94
2020-01-18 18:00:00 3.9 27 Sudeste 78 Sudoeste 0.2 820.6 -1.7 83
2020-01-18 17:00:00 4.1 17 Sudeste 57 Sur 0 821.2 -2.3 86
2020-01-18 16:00:00 4.1 29 Sur 61 Sur 0 821.8 -2.8 86
2020-01-18 15:00:00 3.5 28 Sudeste 58 Sur 0.4 822.3 -3.2 91
2020-01-18 14:00:00 4.5 20 Este 73 Sur 0.2 823.5 -2.7 91
2020-01-18 13:00:00 3.7 31 Sur 79 Sur 0.2 824.6 -1.9 90
2020-01-18 12:00:00 3.8 35 Sur 84 Sur 0 825.5 -1.1 88
2020-01-18 11:00:00 2.8 36 Sur 74 Sudoeste 0.2 826.2 -0.6 88
2020-01-18 10:00:00 2.3 21 Sudeste 64 Sur 0 826.5 -0.5 90
2020-01-18 09:00:00 0.5 36 Sur 66 Sur 0 826.6 -0.9 89
2020-01-18 08:00:00 0.1 34 Sur 57 Sudeste 0 826.8 -1.5 77
2020-01-18 07:00:00 0.3 13 Sur 35 Sur 0 827 -1.5 61
2020-01-18 06:00:00 1 22 Sur 34 Sur 0 827.5 -1.2 54
2020-01-18 05:00:00 0 9 Sudoeste 39 Sudoeste 0 828.3 0.1 70
2020-01-18 04:00:00 0.1 11 Sur 32 Sur 0 828.5 -0.4 54
2020-01-18 03:00:00 -0.7 6 Oeste 53 Sur 0 828.7 -0.9 56
2020-01-18 02:00:00 1.4 40 Sur 58 Sur 0 828.2 -1.5 39
2020-01-18 01:00:00 1.3 13 Sur 21 Sur 0 828.9 -1.3 39
2020-01-18 00:00:00 1 15 Sudoeste 23 Sudoeste 0 829.6 -0.8 32
2020-01-17 23:00:00 -0.9 13 Sudoeste 25 Sur 0 829.7 -0.4 50
2020-01-17 22:00:00 -2.9 17 Sudoeste 28 Sur 0 830.2 0.1 57
2020-01-17 21:00:00 -2.1 17 Sudoeste 28 Sudoeste 0 830.4 0.7 92
2020-01-17 20:00:00 -3 17 Sur 26 Sur 0 830.1 0.7 88
2020-01-17 19:00:00 -1.3 9 Sudeste 27 Oeste 0 830.1 1.2 99
2020-01-17 18:00:00 -1 8 Norte 34 Norte 0 829.7 0.9 99
2020-01-17 17:00:00 -0.6 15 Norte 34 Norte 0 829.4 0.7 99
2020-01-17 16:00:00 -0.2 15 Norte 38 Norte 0 828.9 -0.1 99
2020-01-17 15:00:00 -0.5 13 Noroeste 40 Norte 0 828.8 -0.2 99
2020-01-17 14:00:00 -0.5 16 Norte 64 Oeste 0 828.7 -0.1 99
2020-01-17 13:00:00 -0.5 18 Norte 49 Noroeste 0.2 829 0.9 99
2020-01-17 12:00:00 -0.2 13 Nordeste 54 Norte 1 829 1.6 99
2020-01-17 11:00:00 -0.5 18 Norte 51 Noroeste 1.4 828.8 2 99
2020-01-17 10:00:00 -0.5 17 Norte 73 Noroeste 1.8 828.1 1.8 99
2020-01-17 09:00:00 0 19 Noroeste 54 Noroeste 0.2 827.4 1.5 99
2020-01-17 08:00:00 -0.1 12 Este 55 Oeste 0 826.8 0.8 98
2020-01-17 07:00:00 0.9 16 Nordeste 55 Noroeste 0 826.3 0.4 90
2020-01-17 06:00:00 0.4 17 Noroeste 56 Noroeste 0 825.9 0.3 91
2020-01-17 05:00:00 0.1 15 Noroeste 60 Oeste 0 826 0.3 94
2020-01-17 04:00:00 0.7 14 Sudoeste 50 Oeste 0 825.9 0.5 91
2020-01-17 03:00:00 1.2 12 Este 65 Sudoeste 0 825.6 0 87
2020-01-17 02:00:00 1.7 26 Sur 77 Sudoeste 0 825.7 0.3 86
2020-01-17 01:00:00 1 39 Sur 69 Sur 2 825.4 0.4 95
2020-01-17 00:00:00 0.7 39 Sur 66 Sudoeste 2.4 825.6 1 94
2020-01-16 23:00:00 1.1 31 Sur 59 Sur 0.2 825.4 1 92
2020-01-16 22:00:00 1.4 39 Sur 69 Sur 0 825 0.7 93
2020-01-16 21:00:00 1.6 44 Sur 74 Sur 0 824.6 0.7 90
2020-01-16 20:00:00 1.6 50 Sur 80 Sur 0 824.4 0.1 88
2020-01-16 19:00:00 1.4 40 Sur 80 Sur 0 824.3 -0.4 93
2020-01-16 18:00:00 1.1 46 Sur 78 Sudeste 0 823.9 -0.8 89
2020-01-16 17:00:00 1.2 42 Sur 66 Sudeste 0 824.3 -1 91
2020-01-16 16:00:00 2 36 Sur 58 Sudoeste 0 824.7 -1.5 83
2020-01-16 15:00:00 2.3 38 Sur 76 Sur 0 824.7 -2 90
2020-01-16 14:00:00 2.9 35 Sur 67 Sudoeste 0 825.3 -1.3 93
2020-01-16 13:00:00 2.9 30 Sudoeste 86 Oeste 0.2 826.2 -0.3 93
2020-01-16 12:00:00 2.4 30 Sur 54 Sur 0.2 826.7 0.2 98
2020-01-16 11:00:00 2.6 22 Sudoeste 54 Sur 0 826.6 0.5 97
2020-01-16 10:00:00 2.7 30 Sur 68 Sudoeste 0 826.5 0.8 90
2020-01-16 09:00:00 2.4 32 Sur 55 Sur 0 826.5 1.3 91
2020-01-16 08:00:00 2.4 36 Sur 61 Sur 0 826.1 0.1 89
2020-01-16 07:00:00 2.4 41 Sur 64 Sur 0 825.7 -0.7 88
2020-01-16 06:00:00 3.1 43 Sur 67 Sur 0 825.2 -1.3 83
2020-01-16 05:00:00 3.3 28 Sur 38 Sur 0 826 -0.5 78
2020-01-16 04:00:00 3.3 27 Sur 37 Sur 0 826.4 -0.5 82
2020-01-16 03:00:00 3.8 23 Sur 33 Sur 0 826.5 -0.5 76
2020-01-16 02:00:00 4.2 19 Sur 34 Sur 0 826.5 -0.4 70
2020-01-16 01:00:00 4.2 14 Sur 41 Sudeste 0 826.9 0.1 75
2020-01-16 00:00:00 3.8 16 Sur 39 Sur 0 827 0.4 86
2020-01-15 23:00:00 3.4 9 Sudeste 22 Oeste 0 826.9 0.5 92
2020-01-15 22:00:00 3.2 9 Este 28 Sur 0.4 826.8 0.9 93
2020-01-15 21:00:00 3.7 8 Sur 34 Noroeste 0 826.6 1.3 87
2020-01-15 20:00:00 3.8 7 Noroeste 26 Sudoeste 0 826.4 1.5 88
2020-01-15 19:00:00 3.6 9 Oeste 34 Noroeste 0 825.9 1.6 89
2020-01-15 18:00:00 3.5 10 Noroeste 42 Noroeste 0 825.3 1.4 87
2020-01-15 17:00:00 3.7 11 Sudeste 37 Noroeste 0 824.9 0.8 85
2020-01-15 16:00:00 3.6 15 Sudeste 48 Sur 0 824.3 -0.1 86
2020-01-15 15:00:00 3.1 18 Sudeste 55 Oeste 0 823.9 -0.4 87
2020-01-15 14:00:00 3.1 18 Sudeste 49 Sur 0.2 824.1 0.4 87
2020-01-15 13:00:00 3.3 11 Nordeste 45 Noroeste 0 824.4 1.6 83
2020-01-15 12:00:00 4.4 17 Sudeste 59 Sudoeste 0 824.3 2.5 74
2020-01-15 11:00:00 3.9 21 Sudeste 62 Sur 0 823.7 2.6 74
2020-01-15 10:00:00 4 25 Sur 63 Sur 0 822.8 1.9 62
2020-01-15 09:00:00 2.7 36 Sur 65 Sur 0 821.8 1.1 65
2020-01-15 08:00:00 3 24 Sur 62 Sur 0 821.1 0.6 61
2020-01-15 07:00:00 1.7 25 Sur 62 Sur 0 820.9 0.2 70
2020-01-15 06:00:00 1.7 30 Sur 61 Sur 0 820.7 -0.3 64
2020-01-15 05:00:00 -0.7 42 Sur 70 Sur 0 820.5 -0.3 92
2020-01-15 04:00:00 0 39 Sur 58 Sur 0 820.7 -0.3 87
2020-01-15 03:00:00 1 33 Sur 52 Sur 0 821 -0.4 79
2020-01-15 02:00:00 1.6 33 Sur 50 Sur 0 820.8 -0.9 75
2020-01-15 01:00:00 2.1 30 Sur 53 Sur 0 821 -0.7 72
2020-01-15 00:00:00 2.3 28 Sur 59 Sur 0 821.4 -0.1 71
2020-01-14 23:00:00 2.7 16 Sur 50 Sudoeste 0 821.7 0.2 73
2020-01-14 22:00:00 2.1 15 Sudoeste 56 Sudoeste 0 821.7 0.4 77
2020-01-14 21:00:00 2.3 21 Sudoeste 51 Sudoeste 0 821.5 0.6 77
2020-01-14 20:00:00 0.9 16 Sur 52 Sudoeste 0 821.5 0.6 58
2020-01-14 19:00:00 -1.8 3 Oeste 11 Noroeste 0 821.3 0.3 97
2020-01-14 18:00:00 -1.9 3 Sudeste 7 Sudeste 0 820.9 -0.1 90
2020-01-14 17:00:00 -0.6 3 Sur 17 Noroeste 0 820.9 -0.3 83
2020-01-14 16:00:00 3.9 4 Sudoeste 11 Oeste 0 821 -0.8 64
2020-01-14 15:00:00 3.6 4 Noroeste 13 Nordeste 0 821 -0.9 64
2020-01-14 14:00:00 3.7 5 Norte 10 Norte 0 821.2 -0.7 60
2020-01-14 13:00:00 3.6 4 Sudeste 12 Oeste 0 821.8 0.2 55
2020-01-14 12:00:00 6.5 6 Nordeste 18 Sur 0 821.9 0.6 26
2020-01-14 11:00:00 3 6 Nordeste 23 Sudeste 0 821.9 0.5 22
2020-01-14 10:00:00 5.2 12 Sur 38 Sur 0 821.6 0.4 14
2020-01-14 09:00:00 3.1 5 Norte 26 Sudoeste 0 821.3 0 22
2020-01-14 08:00:00 4.1 19 Sudoeste 33 Sudoeste 0 821.4 0 26
2020-01-14 07:00:00 2.9 14 Sudoeste 32 Sur 0 821.2 -0.5 50
2020-01-14 06:00:00 1.6 13 Sur 32 Sur 0 821.3 -0.4 60
2020-01-14 05:00:00 2.1 19 Sur 32 Sudoeste 0 821.4 -0.3 55
2020-01-14 04:00:00 1.1 13 Sur 37 Sur 0 821.7 -0.9 30
2020-01-14 03:00:00 2.5 18 Sur 57 Sudoeste 1 821.7 -1.1 23
2020-01-14 02:00:00 2.5 20 Sur 47 Sur 0.2 821.7 -1.5 30
2020-01-14 01:00:00 1.4 15 Sudoeste 53 Sudoeste 0 822.6 -0.2 27
2020-01-14 00:00:00 0.8 18 Sudoeste 40 Sur 0 822.8 0.2 30
2020-01-13 23:00:00 1.5 12 Sudoeste 37 Sudoeste 0 823.2 0.4 36
2020-01-13 22:00:00 3.4 18 Sur 45 Sudoeste 0 822.8 0.1 20
2020-01-13 21:00:00 3.7 17 Sur 39 Sur 0 822.6 -0.4 28
2020-01-13 20:00:00 4.2 16 Sudeste 35 Sudeste 0 822.8 -0.3 33
2020-01-13 19:00:00 4 16 Sur 37 Sur 0 822.7 -0.8 35
2020-01-13 18:00:00 3.3 8 Sur 28 Sur 0 823 -0.6 34
2020-01-13 17:00:00 4.4 10 Sur 31 Sudoeste 0 823.1 -1.1 30
2020-01-13 16:00:00 5.4 5 Noroeste 28 Sudoeste 0 823.5 -1.2 20
2020-01-13 15:00:00 5 12 Noroeste 29 Sudoeste 0 823.6 -1.9 45
2020-01-13 14:00:00 5.6 6 Noroeste 19 Noroeste 0 824.2 -1 47
2020-01-13 13:00:00 9.3 4 Sur 16 Sur 0 824.7 -0.4 23
2020-01-13 12:00:00 6.4 4 Oeste 23 Sudoeste 0 825.5 0.5 29
2020-01-13 11:00:00 6.5 17 Sur 30 Sur 0 825.2 0.2 33
2020-01-13 10:00:00 5.7 17 Sudoeste 30 Sudoeste 0 825.1 -0.1 37
2020-01-13 09:00:00 5.7 14 Sur 35 Sudoeste 0 825 -0.5 37
2020-01-13 08:00:00 5.5 13 Sur 31 Sudoeste 0 825 -0.7 38
2020-01-13 07:00:00 5.5 12 Sudeste 27 Sur 0 825.2 -1.1 17
2020-01-13 06:00:00 3.7 5 Nordeste 26 Sudeste 0 825.5 -1.4 20
2020-01-13 05:00:00 5.3 12 Sudeste 26 Sudeste 0 825.7 -1.4 16
2020-01-13 04:00:00 2.8 11 Sur 18 Sudoeste 0 826.3 -1.4 24
2020-01-13 03:00:00 3.8 8 Sur 22 Sudoeste 0 826.9 -1.2 19
2020-01-13 02:00:00 3.9 14 Sur 25 Sudoeste 0 827.1 -1.3 23
2020-01-13 01:00:00 3.7 15 Sur 29 Sur 0 827.7 -0.8 29
2020-01-13 00:00:00 5.5 15 Sur 29 Sudoeste 0 828.1 -0.9 21
2020-01-12 23:00:00 4.6 15 Sudoeste 22 Sur 0 828.4 -0.7 24
2020-01-12 22:00:00 4.1 6 Sudoeste 12 Sur 0 828.5 -0.3 27
2020-01-12 21:00:00 3.8 4 Sur 14 Sur 0 829 0.3 31
2020-01-12 20:00:00 3.1 10 Sudeste 15 Sudeste 0 829.1 0.7 37
2020-01-12 19:00:00 3.1 11 Sur 15 Sudeste 0 828.8 0.4 35
2020-01-12 18:00:00 4.2 5 Sudeste 12 Sudeste 0 828.7 0.2 33
2020-01-12 17:00:00 4.6 4 Sur 10 Nordeste 0 828.4 -0.7 30
2020-01-12 16:00:00 7.8 0 Calma 9 Sur 0 828.4 -1.3 29
2020-01-12 15:00:00 8.2 2 Sur 7 Sur 0 828.5 -1.9 27
2020-01-12 14:00:00 8.7 2 Este 7 Norte 0.2 829.1 -1.3 24
2020-01-12 13:00:00 8.6 3 Norte 7 Nordeste 0 829.7 -0.2 19
2020-01-12 12:00:00 5.5 2 Sudeste 17 Sudeste 0 830.4 0.9 15
2020-01-12 11:00:00 4.3 11 Sudeste 21 Sudeste 0 830.4 1 10
2020-01-12 10:00:00 2.2 9 Sudeste 22 Este 0 829.9 0.5 31
2020-01-12 09:00:00 0.9 15 Sudeste 23 Sudeste 0 829.5 0.3 26
2020-01-12 08:00:00 -0.2 5 Sudeste 21 Sudeste 0.2 829.4 0.2 52
2020-01-12 07:00:00 -0.6 5 Sudeste 10 Sur 0 829.4 0.1 46
2020-01-12 06:00:00 -0.4 5 Sur 10 Sur 0 829.2 0 44
2020-01-12 05:00:00 -2.2 6 Sudoeste 11 Sudoeste 0 829.2 0 56
2020-01-12 04:00:00 -1 0 Calma 9 Sur 0 829.3 0 66
2020-01-12 03:00:00 -1 0 Calma 8 Sur 0 829.2 -0.2 55
2020-01-12 02:00:00 -0.6 6 Sudeste 12 Este 0 829.2 -0.4 48
2020-01-12 01:00:00 0.9 4 Este 16 Este 0 829.3 -0.4 15
2020-01-12 00:00:00 1.8 10 Sudeste 17 Sudeste 0 829.4 -0.5 17
2020-01-11 23:00:00 1.2 12 Sudeste 18 Sudeste 0 829.6 0.1 20
2020-01-11 22:00:00 -1.3 3 Sudeste 11 Sudoeste 0 829.7 0.5 23
2020-01-11 21:00:00 -1.4 6 Sur 11 Sur 0 829.9 1 29
2020-01-11 20:00:00 -1.2 4 Sudeste 8 Nordeste 0 829.5 0.7 42
2020-01-11 19:00:00 -0.5 3 Sur 11 Sudeste 0 829.2 0.3 38
2020-01-11 18:00:00 -0.4 3 Sudeste 9 Sudeste 0 828.9 -0.1 59
2020-01-11 17:00:00 -0.2 0 Calma 5 Sudoeste 0 828.8 -0.3 70
2020-01-11 16:00:00 3.5 2 Oeste 7 Sudoeste 0 828.9 -0.7 58
2020-01-11 15:00:00 5 4 Noroeste 7 Norte 0 829 -1.3 52
2020-01-11 14:00:00 6.4 3 Sudoeste 6 Sudoeste 0 829.1 -1.2 39
2020-01-11 13:00:00 4 3 Sur 13 Sudeste 0 829.6 0 27
2020-01-11 12:00:00 0.2 9 Sudeste 15 Sudeste 0 830.3 1.2 33
2020-01-11 11:00:00 -1.4 6 Sudeste 26 Este 0 830.3 1.1 50
2020-01-11 10:00:00 0.6 21 Sudeste 31 Sudeste 0 829.6 0.7 28
2020-01-11 09:00:00 -0.2 21 Sudeste 31 Sudeste 0 829.1 0.7 33
2020-01-11 08:00:00 -0.7 15 Sudeste 28 Sudeste 0 829.2 0.7 36
2020-01-11 07:00:00 -0.5 17 Sudeste 41 Sudeste 0 828.9 0.1 34
2020-01-11 06:00:00 -0.2 23 Sudeste 46 Sudeste 0 828.4 -0.5 28
2020-01-11 05:00:00 -0.4 28 Sudeste 49 Sudeste 0 828.5 -0.2 32
2020-01-11 04:00:00 0 28 Sudeste 49 Sudeste 0 828.8 0 33
2020-01-11 03:00:00 -1.1 25 Sudeste 44 Sudeste 0 828.9 -0.1 56
2020-01-11 02:00:00 -2.1 22 Sudeste 41 Sudeste 0 828.7 -0.3 67
2020-01-11 01:00:00 -4.2 2 Nordeste 25 Nordeste 0 828.8 -0.3 93
2020-01-11 00:00:00 -3.9 10 Este 23 Este 0 829 -0.2 95
2020-01-10 23:00:00 -4.8 6 Sudeste 13 Nordeste 0 829 0.1 97
2020-01-10 22:00:00 -3.7 7 Este 26 Norte 0 829.1 0.8 98
2020-01-10 21:00:00 -2.5 15 Norte 26 Norte 0 829.2 1.1 99
2020-01-10 20:00:00 -2.4 13 Norte 30 Norte 0 828.9 1.2 99
2020-01-10 19:00:00 -1.9 14 Norte 30 Norte 0 828.3 0.7 99
2020-01-10 18:00:00 -1.8 18 Norte 34 Norte 0 828.1 0.8 99
2020-01-10 17:00:00 -2 21 Norte 39 Nordeste 0 827.7 0.4 99
2020-01-10 16:00:00 -2 20 Norte 32 Norte 0 827.6 0 99
2020-01-10 15:00:00 -2 19 Norte 33 Nordeste 0 827.3 -0.5 99
2020-01-10 14:00:00 -2.1 17 Norte 29 Norte 0 827.3 -0.2 99
2020-01-10 13:00:00 -2.5 19 Norte 37 Nordeste 0 827.6 0.7 98
2020-01-10 12:00:00 -2.6 15 Nordeste 32 Norte 0 827.8 1.3 98
2020-01-10 11:00:00 -3 22 Norte 46 Norte 0 827.5 1.3 98
2020-01-10 10:00:00 -3.3 20 Nordeste 37 Norte 0 826.9 1.3 98
2020-01-10 09:00:00 -2.9 19 Norte 39 Norte 0 826.5 1.4 98
2020-01-10 08:00:00 -3.1 9 Nordeste 15 Norte 0 826.2 1 98
2020-01-10 07:00:00 -2.9 8 Norte 26 Noroeste 0 825.6 0.4 98
2020-01-10 06:00:00 -3.4 5 Noroeste 26 Oeste 0 825.1 -0.2 98
2020-01-10 05:00:00 -3.2 6 Noroeste 28 Oeste 0 825.2 0.1 99
2020-01-10 04:00:00 -2.8 12 Oeste 27 Sudeste 0 825.2 -0.1 100
2020-01-10 03:00:00 -2.6 10 Norte 46 Noroeste 0 825.3 -0.5 100
2020-01-10 02:00:00 -0.7 14 Norte 48 Oeste 0 825.1 -0.5 100
2020-01-10 01:00:00 -0.1 10 Nordeste 51 Oeste 0 825.3 -0.2 100
2020-01-10 00:00:00 0.8 13 Noroeste 56 Noroeste 0 825.8 0.3 99
2020-01-09 23:00:00 1.4 20 Norte 56 Noroeste 0 825.6 -0.4 99
2020-01-09 22:00:00 2 23 Norte 66 Noroeste 0 825.5 -0.6 99
2020-01-09 21:00:00 3 12 Este 47 Sudoeste 0 825.5 -0.5 98
2020-01-09 20:00:00 2.9 14 Norte 66 Noroeste 0.4 826 0.4 98
2020-01-09 19:00:00 3.6 18 Norte 56 Norte 0.2 826.1 0.6 97
2020-01-09 18:00:00 4.8 13 Oeste 42 Sur 0 826 0.5 88
2020-01-09 17:00:00 5.7 15 Sur 36 Sur 0 825.6 -1.1 84
2020-01-09 16:00:00 4.6 9 Sur 32 Sur 0 825.5 -1.6 85
2020-01-09 15:00:00 7.1 12 Sudoeste 45 Noroeste 0 825.5 -1.9 72
2020-01-09 14:00:00 4.1 10 Sur 44 Sur 0 826.7 -0.8 85
2020-01-09 13:00:00 4.3 11 Sur 27 Sur 0 827.1 -0.6 84
2020-01-09 12:00:00 6.4 8 Sur 27 Sur 0 827.4 0.4 53
2020-01-09 11:00:00 4.2 14 Sur 25 Sur 0 827.5 0.4 85
2020-01-09 10:00:00 3.8 15 Sur 24 Sudoeste 0 827.7 0.4 66
2020-01-09 09:00:00 5.3 13 Sudoeste 21 Sudoeste 0 827 -0.2 77
2020-01-09 08:00:00 4.9 13 Sudoeste 25 Sudoeste 0 827.1 -0.4 39
2020-01-09 07:00:00 4.8 12 Sudoeste 17 Sudoeste 0 827.3 -0.7 44
2020-01-09 06:00:00 4.9 9 Sudoeste 14 Sudoeste 0 827.2 -1.1 61
2020-01-09 05:00:00 4.1 10 Sudoeste 16 Sur 0 827.5 -1.1 56
2020-01-09 04:00:00 4.6 12 Sudoeste 18 Sudoeste 0 828 -0.8 53
2020-01-09 03:00:00 4.5 13 Sudoeste 19 Sur 0 828.3 -0.8 41
2020-01-09 02:00:00 4.5 10 Sur 19 Sudoeste 0 828.6 -0.7 55
2020-01-09 01:00:00 5.6 11 Sur 22 Sudoeste 0 828.8 -0.5 65
2020-01-09 00:00:00 5.4 4 Sudoeste 12 Sudoeste 0 829.1 -0.4 51
2020-01-08 23:00:00 5 6 Sudoeste 10 Sudoeste 0 829.3 -0.3 51
2020-01-08 22:00:00 4.9 4 Sur 10 Sudoeste 0 829.3 -0.3 58
2020-01-08 21:00:00 5 4 Sur 10 Sur 0 829.5 0 59
2020-01-08 20:00:00 5.8 4 Sur 9 Sur 0 829.6 0.2 57
2020-01-08 19:00:00 6.1 3 Sudoeste 8 Sudeste 0 829.6 0.2 56
2020-01-08 18:00:00 5.5 5 Sur 10 Sur 0 829.5 0.1 56
2020-01-08 17:00:00 6.9 2 Noroeste 6 Sudoeste 0 829.4 -0.3 58
2020-01-08 16:00:00 10.9 0 Calma 7 Sudoeste 0 829.4 -0.8 40
2020-01-08 15:00:00 13.4 2 Sur 6 Noroeste 0 829.4 -1.5 34
2020-01-08 14:00:00 13.7 2 Nordeste 7 Nordeste 0 829.7 -1.6 32
2020-01-08 13:00:00 13.8 2 Sur 8 Sur 0 830.2 -1 32
2020-01-08 12:00:00 7.4 3 Sudeste 6 Sur 0 830.9 0.2 47
2020-01-08 11:00:00 6.1 3 Sudeste 12 Sudeste 0 831.3 0.9 54
2020-01-08 10:00:00 6.2 5 Sur 18 Sudeste 0 831.2 0.9 48
2020-01-08 09:00:00 5 3 Sudeste 13 Sur 0 830.7 0.2 26
2020-01-08 08:00:00 5.4 8 Sudeste 19 Este 0 830.4 -0.2 25
2020-01-08 07:00:00 6.4 6 Sur 19 Nordeste 0 830.3 -0.4 18
2020-01-08 06:00:00 6.1 6 Este 15 Este 0 830.5 -0.5 14
2020-01-08 05:00:00 5.4 7 Sudeste 25 Nordeste 0 830.6 -0.5 15
2020-01-08 04:00:00 6.1 8 Este 21 Sudeste 0 830.7 -0.7 12
2020-01-08 03:00:00 5.2 12 Sudeste 19 Sudeste 0 831 -0.7 14
2020-01-08 02:00:00 4.8 4 Sur 11 Sudoeste 0 831.1 -0.8 12
2020-01-08 01:00:00 4.4 8 Sur 12 Sur 0 831.4 -0.6 14
2020-01-08 00:00:00 4.4 7 Sur 12 Sudoeste 0 831.7 -0.1 14
2020-01-07 23:00:00 5 7 Sudoeste 13 Sudoeste 0 831.9 0.2 13
2020-01-07 22:00:00 4.5 6 Sudoeste 11 Sudoeste 0 832 0.3 17
2020-01-07 21:00:00 4.6 8 Sur 14 Sur 0 831.8 0.2 16
2020-01-07 20:00:00 6.3 4 Sudoeste 17 Sur 0 831.7 0.3 13
2020-01-07 19:00:00 4.9 14 Sudeste 21 Sudeste 0 831.7 0.1 18
2020-01-07 18:00:00 5.4 5 Sudoeste 11 Sur 0 831.6 -0.1 20
2020-01-07 17:00:00 7.9 3 Oeste 21 Sudeste 0 831.4 -0.6 16
2020-01-07 16:00:00 11.1 5 Sur 18 Sudeste 0 831.6 -0.8 16
2020-01-07 15:00:00 12.3 4 Nordeste 14 Sudeste 0 831.7 -1.2 10
2020-01-07 14:00:00 13 4 Nordeste 14 Sur 0 832 -0.7 20
2020-01-07 13:00:00 11.9 7 Sur 16 Sudeste 0 832.4 0 12
2020-01-07 12:00:00 8.7 7 Sur 17 Sudeste 0 832.9 0.9 17
2020-01-07 11:00:00 6.6 6 Sur 16 Sur 0 832.7 1.2 24
2020-01-07 10:00:00 5.1 6 Sur 12 Sur 0 832.4 1 30
2020-01-07 09:00:00 5.4 8 Sur 10 Sur 0 832 0.8 27
2020-01-07 08:00:00 3.6 5 Sur 10 Sur 0 831.5 0 28
2020-01-07 07:00:00 3.5 6 Sur 13 Sur 0 831.4 -0.2 32
2020-01-07 06:00:00 4.4 3 Sudoeste 12 Sur 0 831.2 -0.1 26
2020-01-07 05:00:00 5.4 5 Sudeste 12 Sur 0 831.5 -0.2 21
2020-01-07 04:00:00 4.9 3 Sudeste 18 Sur 0 831.6 0.2 18
2020-01-07 03:00:00 5.1 7 Sudeste 13 Sudeste 0 831.3 -0.1 15
2020-01-07 02:00:00 4.7 4 Sudeste 14 Sudeste 0 831.7 0.3 22
2020-01-07 01:00:00 4.3 7 Sur 16 Sudeste 0 831.4 0 27
2020-01-07 00:00:00 3.6 5 Sur 15 Sur 0 831.4 0.4 18
2020-01-06 23:00:00 4.9 5 Sur 14 Sur 0 831.4 0.5 13
2020-01-06 22:00:00 4.6 4 Sur 23 Sudoeste 0 831.4 1.1 14
2020-01-06 21:00:00 5 7 Sudeste 16 Sur 0 831 1.3 16
2020-01-06 20:00:00 3.8 10 Sur 17 Sur 0 830.9 1.6 21
2020-01-06 19:00:00 4.6 7 Sur 21 Sudoeste 0 830.3 1 15
2020-01-06 18:00:00 6.2 15 Sudoeste 21 Sudoeste 0 829.7 0.8 23
2020-01-06 17:00:00 6.7 6 Sur 15 Sudoeste 0 829.3 0.2 28
2020-01-06 16:00:00 8.1 5 Sur 15 Oeste 0 829.3 -0.5 27
2020-01-06 15:00:00 10.4 6 Sudoeste 18 Sur 0 828.9 -1.2 27
2020-01-06 14:00:00 10.1 12 Sur 19 Sur 0 829.1 -0.8 27
2020-01-06 13:00:00 8.8 12 Sur 21 Sur 0 829.8 0.3 28
2020-01-06 12:00:00 6.8 8 Sudoeste 12 Sudoeste 0 830.1 0.8 31
2020-01-06 11:00:00 5.6 5 Sudoeste 12 Sur 0 829.9 0.9 36
2020-01-06 10:00:00 5 10 Sudoeste 14 Sudoeste 0 829.5 1.2 36